Terminal Aerodrome Forecast
Issued by NWS Duluth, MN

Home | Current Version | Previous Version | Text Only | Print | Product List | Glossary On
Versions: 1 2 3 4 5 6 7 8 9 10 11 12 13 14 15 16
000
FTUS43 KDLH 241400 AAA
TAFINL
TAF AMD
KINL 241438Z 2415/2512 35016G25KT 6SM -SN BLSN OVC015
      TEMPO 2416/2419 4SM -SN BLSN
     FM250000 32012KT P6SM BKN025
     FM250500 29006KT P6SM SCT050 BKN080=

USA.gov is the U.S. government's official web portal to all federal, state and local government web resources and services.